sensor_id;sensor_type;location;lat;lon;timestamp;P1;durP1;ratioP1;P2;durP2;ratioP2
60006;SDS011;45863;50.336;3.536;2022-08-01T00:00:24;5.07;;;2.00;;
60006;SDS011;45863;50.336;3.536;2022-08-01T00:02:50;6.78;;;2.35;;
60006;SDS011;45863;50.336;3.536;2022-08-01T00:05:15;5.63;;;2.05;;
60006;SDS011;45863;50.336;3.536;2022-08-01T00:07:41;7.20;;;2.50;;
60006;SDS011;45863;50.336;3.536;2022-08-01T00:10:07;6.28;;;2.30;;
60006;SDS011;45863;50.336;3.536;2022-08-01T00:12:33;6.00;;;2.28;;
60006;SDS011;45863;50.336;3.536;2022-08-01T00:15:00;8.77;;;2.50;;
60006;SDS011;45863;50.336;3.536;2022-08-01T00:17:26;4.70;;;2.42;;
60006;SDS011;45863;50.336;3.536;2022-08-01T00:19:51;5.75;;;2.45;;
60006;SDS011;45863;50.336;3.536;2022-08-01T00:22:16;5.85;;;2.40;;
60006;SDS011;45863;50.336;3.536;2022-08-01T00:24:42;7.60;;;2.45;;
60006;SDS011;45863;50.336;3.536;2022-08-01T00:27:07;7.53;;;2.42;;
60006;SDS011;45863;50.336;3.536;2022-08-01T00:29:32;6.97;;;2.25;;
60006;SDS011;45863;50.336;3.536;2022-08-01T00:31:57;6.87;;;2.43;;
60006;SDS011;45863;50.336;3.536;2022-08-01T00:34:23;6.82;;;2.40;;
60006;SDS011;45863;50.336;3.536;2022-08-01T00:36:48;5.57;;;2.40;;
60006;SDS011;45863;50.336;3.536;2022-08-01T00:39:13;6.95;;;2.30;;
60006;SDS011;45863;50.336;3.536;2022-08-01T00:41:38;5.88;;;2.95;;
60006;SDS011;45863;50.336;3.536;2022-08-01T00:44:04;6.80;;;2.60;;
60006;SDS011;45863;50.336;3.536;2022-08-01T00:46:30;7.15;;;2.42;;
60006;SDS011;45863;50.336;3.536;2022-08-01T00:48:55;6.47;;;2.40;;
60006;SDS011;45863;50.336;3.536;2022-08-01T00:51:20;6.23;;;2.50;;
60006;SDS011;45863;50.336;3.536;2022-08-01T00:53:46;7.75;;;2.95;;
60006;SDS011;45863;50.336;3.536;2022-08-01T00:56:11;5.00;;;2.67;;
60006;SDS011;45863;50.336;3.536;2022-08-01T00:58:36;4.93;;;2.22;;
60006;SDS011;45863;50.336;3.536;2022-08-01T01:01:02;5.70;;;2.97;;
60006;SDS011;45863;50.336;3.536;2022-08-01T01:03:27;8.63;;;2.40;;
60006;SDS011;45863;50.336;3.536;2022-08-01T01:05:57;6.07;;;2.33;;
60006;SDS011;45863;50.336;3.536;2022-08-01T01:08:30;6.72;;;2.50;;
60006;SDS011;45863;50.336;3.536;2022-08-01T01:13:43;7.50;;;2.40;;
60006;SDS011;45863;50.336;3.536;2022-08-01T01:16:09;6.13;;;2.45;;
60006;SDS011;45863;50.336;3.536;2022-08-01T01:18:36;7.25;;;2.72;;
60006;SDS011;45863;50.336;3.536;2022-08-01T01:31:20;7.35;;;2.70;;
60006;SDS011;45863;50.336;3.536;2022-08-01T01:33:46;6.28;;;2.83;;
60006;SDS011;45863;50.336;3.536;2022-08-01T01:36:12;8.20;;;2.67;;
60006;SDS011;45863;50.336;3.536;2022-08-01T01:38:43;6.50;;;2.55;;
60006;SDS011;45863;50.336;3.536;2022-08-01T01:41:13;8.13;;;3.55;;
60006;SDS011;45863;50.336;3.536;2022-08-01T01:43:39;6.35;;;3.10;;
60006;SDS011;45863;50.336;3.536;2022-08-01T01:46:04;6.97;;;2.80;;
60006;SDS011;45863;50.336;3.536;2022-08-01T01:48:30;7.03;;;2.88;;
60006;SDS011;45863;50.336;3.536;2022-08-01T01:50:55;6.10;;;2.80;;
60006;SDS011;45863;50.336;3.536;2022-08-01T01:53:21;7.72;;;2.72;;
60006;SDS011;45863;50.336;3.536;2022-08-01T01:55:48;7.13;;;2.65;;
60006;SDS011;45863;50.336;3.536;2022-08-01T01:58:14;11.00;;;2.95;;
60006;SDS011;45863;50.336;3.536;2022-08-01T02:00:41;6.40;;;2.60;;
60006;SDS011;45863;50.336;3.536;2022-08-01T02:03:07;8.98;;;3.20;;
60006;SDS011;45863;50.336;3.536;2022-08-01T02:05:33;10.07;;;2.97;;
60006;SDS011;45863;50.336;3.536;2022-08-01T02:08:00;7.13;;;2.95;;
60006;SDS011;45863;50.336;3.536;2022-08-01T02:10:26;7.78;;;3.00;;
60006;SDS011;45863;50.336;3.536;2022-08-01T02:12:52;8.07;;;3.10;;
60006;SDS011;45863;50.336;3.536;2022-08-01T02:15:18;6.35;;;2.90;;
60006;SDS011;45863;50.336;3.536;2022-08-01T02:17:44;9.88;;;3.65;;
60006;SDS011;45863;50.336;3.536;2022-08-01T02:20:12;8.43;;;3.17;;
60006;SDS011;45863;50.336;3.536;2022-08-01T02:22:40;11.38;;;4.55;;
60006;SDS011;45863;50.336;3.536;2022-08-01T02:25:07;11.85;;;3.58;;
60006;SDS011;45863;50.336;3.536;2022-08-01T02:27:37;11.57;;;4.28;;
60006;SDS011;45863;50.336;3.536;2022-08-01T02:30:06;16.05;;;4.80;;
60006;SDS011;45863;50.336;3.536;2022-08-01T02:32:34;11.60;;;4.18;;
60006;SDS011;45863;50.336;3.536;2022-08-01T02:35:01;15.57;;;5.20;;
60006;SDS011;45863;50.336;3.536;2022-08-01T02:37:28;14.20;;;4.47;;
60006;SDS011;45863;50.336;3.536;2022-08-01T02:39:56;13.77;;;5.10;;
60006;SDS011;45863;50.336;3.536;2022-08-01T02:42:22;12.93;;;5.63;;
60006;SDS011;45863;50.336;3.536;2022-08-01T02:44:48;15.52;;;5.55;;
60006;SDS011;45863;50.336;3.536;2022-08-01T02:47:14;12.60;;;5.10;;
60006;SDS011;45863;50.336;3.536;2022-08-01T02:49:44;14.20;;;4.10;;
60006;SDS011;45863;50.336;3.536;2022-08-01T02:52:11;14.45;;;5.32;;
60006;SDS011;45863;50.336;3.536;2022-08-01T02:54:37;13.32;;;4.55;;
60006;SDS011;45863;50.336;3.536;2022-08-01T02:57:03;14.38;;;4.60;;
60006;SDS011;45863;50.336;3.536;2022-08-01T02:59:29;15.02;;;4.13;;
60006;SDS011;45863;50.336;3.536;2022-08-01T03:01:55;11.60;;;4.15;;
60006;SDS011;45863;50.336;3.536;2022-08-01T03:04:21;12.48;;;5.78;;
60006;SDS011;45863;50.336;3.536;2022-08-01T03:06:47;11.75;;;4.43;;
60006;SDS011;45863;50.336;3.536;2022-08-01T03:09:13;15.48;;;4.35;;
60006;SDS011;45863;50.336;3.536;2022-08-01T03:11:39;14.85;;;4.72;;
60006;SDS011;45863;50.336;3.536;2022-08-01T03:14:05;17.45;;;4.78;;
60006;SDS011;45863;50.336;3.536;2022-08-01T03:16:32;15.55;;;4.68;;
60006;SDS011;45863;50.336;3.536;2022-08-01T03:18:58;12.30;;;4.45;;
60006;SDS011;45863;50.336;3.536;2022-08-01T03:21:23;14.40;;;4.82;;
60006;SDS011;45863;50.336;3.536;2022-08-01T03:23:50;14.63;;;5.75;;
60006;SDS011;45863;50.336;3.536;2022-08-01T03:26:16;16.55;;;4.85;;
60006;SDS011;45863;50.336;3.536;2022-08-01T03:28:42;12.52;;;4.82;;
60006;SDS011;45863;50.336;3.536;2022-08-01T03:31:09;15.05;;;4.68;;
60006;SDS011;45863;50.336;3.536;2022-08-01T03:33:35;21.13;;;5.00;;
60006;SDS011;45863;50.336;3.536;2022-08-01T03:36:00;15.20;;;4.40;;
60006;SDS011;45863;50.336;3.536;2022-08-01T03:38:27;14.40;;;4.53;;
60006;SDS011;45863;50.336;3.536;2022-08-01T03:40:56;13.93;;;4.40;;
60006;SDS011;45863;50.336;3.536;2022-08-01T03:43:28;10.50;;;4.40;;
60006;SDS011;45863;50.336;3.536;2022-08-01T03:45:54;16.95;;;4.88;;
60006;SDS011;45863;50.336;3.536;2022-08-01T03:48:22;12.70;;;5.18;;
60006;SDS011;45863;50.336;3.536;2022-08-01T03:50:50;10.40;;;4.60;;
60006;SDS011;45863;50.336;3.536;2022-08-01T03:53:16;13.75;;;4.32;;
60006;SDS011;45863;50.336;3.536;2022-08-01T03:55:44;12.93;;;5.32;;
60006;SDS011;45863;50.336;3.536;2022-08-01T03:58:09;15.55;;;5.15;;
60006;SDS011;45863;50.336;3.536;2022-08-01T04:00:36;12.50;;;5.07;;
60006;SDS011;45863;50.336;3.536;2022-08-01T04:03:03;12.20;;;4.00;;
60006;SDS011;45863;50.336;3.536;2022-08-01T04:05:29;12.45;;;4.60;;
60006;SDS011;45863;50.336;3.536;2022-08-01T04:07:56;13.48;;;4.50;;
60006;SDS011;45863;50.336;3.536;2022-08-01T04:10:22;14.85;;;5.38;;
60006;SDS011;45863;50.336;3.536;2022-08-01T04:12:47;18.73;;;5.57;;
60006;SDS011;45863;50.336;3.536;2022-08-01T04:15:13;10.23;;;4.18;;
60006;SDS011;45863;50.336;3.536;2022-08-01T04:17:39;13.27;;;5.15;;
60006;SDS011;45863;50.336;3.536;2022-08-01T04:20:04;11.10;;;5.25;;
60006;SDS011;45863;50.336;3.536;2022-08-01T04:22:29;13.40;;;5.68;;
60006;SDS011;45863;50.336;3.536;2022-08-01T04:24:55;13.45;;;5.43;;
60006;SDS011;45863;50.336;3.536;2022-08-01T04:27:24;13.10;;;5.30;;
60006;SDS011;45863;50.336;3.536;2022-08-01T04:29:51;15.10;;;5.50;;
60006;SDS011;45863;50.336;3.536;2022-08-01T04:32:18;16.92;;;5.57;;
60006;SDS011;45863;50.336;3.536;2022-08-01T04:34:45;12.07;;;6.28;;
60006;SDS011;45863;50.336;3.536;2022-08-01T04:37:11;15.88;;;5.80;;
60006;SDS011;45863;50.336;3.536;2022-08-01T04:39:37;12.75;;;6.18;;
60006;SDS011;45863;50.336;3.536;2022-08-01T04:42:04;11.23;;;5.35;;
60006;SDS011;45863;50.336;3.536;2022-08-01T04:44:31;11.40;;;5.38;;
60006;SDS011;45863;50.336;3.536;2022-08-01T04:46:58;15.48;;;5.97;;
60006;SDS011;45863;50.336;3.536;2022-08-01T04:49:23;12.77;;;4.97;;
60006;SDS011;45863;50.336;3.536;2022-08-01T04:51:52;12.90;;;4.90;;
60006;SDS011;45863;50.336;3.536;2022-08-01T04:54:22;14.43;;;4.30;;
60006;SDS011;45863;50.336;3.536;2022-08-01T04:56:47;12.70;;;5.22;;
60006;SDS011;45863;50.336;3.536;2022-08-01T04:59:12;11.63;;;4.40;;
60006;SDS011;45863;50.336;3.536;2022-08-01T05:01:56;14.98;;;5.03;;
60006;SDS011;45863;50.336;3.536;2022-08-01T05:04:21;13.30;;;5.20;;
60006;SDS011;45863;50.336;3.536;2022-08-01T05:06:46;13.47;;;5.40;;
60006;SDS011;45863;50.336;3.536;2022-08-01T05:09:12;16.57;;;5.87;;
60006;SDS011;45863;50.336;3.536;2022-08-01T05:11:37;17.10;;;6.27;;
60006;SDS011;45863;50.336;3.536;2022-08-01T05:14:02;13.75;;;5.72;;
60006;SDS011;45863;50.336;3.536;2022-08-01T05:16:27;16.40;;;5.67;;
60006;SDS011;45863;50.336;3.536;2022-08-01T05:18:52;19.92;;;5.95;;
60006;SDS011;45863;50.336;3.536;2022-08-01T05:21:18;15.17;;;5.93;;
60006;SDS011;45863;50.336;3.536;2022-08-01T05:23:43;19.17;;;6.13;;
60006;SDS011;45863;50.336;3.536;2022-08-01T05:26:09;17.30;;;5.73;;
60006;SDS011;45863;50.336;3.536;2022-08-01T05:28:34;14.95;;;6.43;;
60006;SDS011;45863;50.336;3.536;2022-08-01T05:30:59;13.93;;;6.63;;
60006;SDS011;45863;50.336;3.536;2022-08-01T05:33:24;14.20;;;5.93;;
60006;SDS011;45863;50.336;3.536;2022-08-01T05:35:49;20.40;;;6.60;;
60006;SDS011;45863;50.336;3.536;2022-08-01T05:38:15;10.70;;;5.55;;
60006;SDS011;45863;50.336;3.536;2022-08-01T05:40:40;13.05;;;6.28;;
60006;SDS011;45863;50.336;3.536;2022-08-01T05:43:05;15.57;;;5.63;;
60006;SDS011;45863;50.336;3.536;2022-08-01T05:45:30;13.77;;;6.13;;
60006;SDS011;45863;50.336;3.536;2022-08-01T05:47:56;14.48;;;7.45;;
60006;SDS011;45863;50.336;3.536;2022-08-01T05:50:21;13.90;;;7.63;;
60006;SDS011;45863;50.336;3.536;2022-08-01T05:52:46;17.10;;;8.77;;
60006;SDS011;45863;50.336;3.536;2022-08-01T05:55:11;21.87;;;9.50;;
60006;SDS011;45863;50.336;3.536;2022-08-01T05:57:37;20.35;;;9.27;;
60006;SDS011;45863;50.336;3.536;2022-08-01T06:00:02;17.93;;;9.40;;
60006;SDS011;45863;50.336;3.536;2022-08-01T06:02:27;18.55;;;10.27;;
60006;SDS011;45863;50.336;3.536;2022-08-01T06:04:52;21.57;;;9.73;;
60006;SDS011;45863;50.336;3.536;2022-08-01T06:07:18;17.30;;;9.47;;
60006;SDS011;45863;50.336;3.536;2022-08-01T06:09:43;23.37;;;9.87;;
60006;SDS011;45863;50.336;3.536;2022-08-01T06:12:08;23.67;;;9.93;;
60006;SDS011;45863;50.336;3.536;2022-08-01T06:14:33;22.77;;;9.00;;
60006;SDS011;45863;50.336;3.536;2022-08-01T06:16:58;21.90;;;9.80;;
60006;SDS011;45863;50.336;3.536;2022-08-01T06:19:24;18.67;;;9.18;;
60006;SDS011;45863;50.336;3.536;2022-08-01T06:21:49;18.55;;;8.02;;
60006;SDS011;45863;50.336;3.536;2022-08-01T06:24:14;19.77;;;9.17;;
60006;SDS011;45863;50.336;3.536;2022-08-01T06:26:39;17.48;;;9.45;;
60006;SDS011;45863;50.336;3.536;2022-08-01T06:29:04;20.93;;;9.30;;
60006;SDS011;45863;50.336;3.536;2022-08-01T06:31:30;21.80;;;9.20;;
60006;SDS011;45863;50.336;3.536;2022-08-01T06:33:56;16.30;;;9.00;;
60006;SDS011;45863;50.336;3.536;2022-08-01T06:36:22;14.77;;;8.32;;
60006;SDS011;45863;50.336;3.536;2022-08-01T06:38:47;17.13;;;8.48;;
60006;SDS011;45863;50.336;3.536;2022-08-01T06:41:12;21.23;;;10.50;;
60006;SDS011;45863;50.336;3.536;2022-08-01T06:43:37;15.48;;;8.05;;
60006;SDS011;45863;50.336;3.536;2022-08-01T06:46:03;15.47;;;8.57;;
60006;SDS011;45863;50.336;3.536;2022-08-01T06:48:29;22.05;;;8.70;;
60006;SDS011;45863;50.336;3.536;2022-08-01T06:50:54;22.10;;;8.70;;
60006;SDS011;45863;50.336;3.536;2022-08-01T06:53:32;20.70;;;9.00;;
60006;SDS011;45863;50.336;3.536;2022-08-01T06:55:58;12.38;;;7.82;;
60006;SDS011;45863;50.336;3.536;2022-08-01T06:58:23;16.03;;;8.57;;
60006;SDS011;45863;50.336;3.536;2022-08-01T07:00:48;15.43;;;8.67;;
60006;SDS011;45863;50.336;3.536;2022-08-01T07:03:13;15.53;;;7.60;;
60006;SDS011;45863;50.336;3.536;2022-08-01T07:05:39;14.00;;;7.85;;
60006;SDS011;45863;50.336;3.536;2022-08-01T07:08:04;16.10;;;8.95;;
60006;SDS011;45863;50.336;3.536;2022-08-01T07:10:29;13.90;;;8.00;;
60006;SDS011;45863;50.336;3.536;2022-08-01T07:12:55;13.32;;;7.93;;
60006;SDS011;45863;50.336;3.536;2022-08-01T07:15:20;15.23;;;8.88;;
60006;SDS011;45863;50.336;3.536;2022-08-01T07:17:51;13.95;;;8.45;;
60006;SDS011;45863;50.336;3.536;2022-08-01T07:20:16;21.17;;;8.97;;
60006;SDS011;45863;50.336;3.536;2022-08-01T07:22:41;15.67;;;8.07;;
60006;SDS011;45863;50.336;3.536;2022-08-01T07:25:06;17.58;;;8.90;;
60006;SDS011;45863;50.336;3.536;2022-08-01T07:27:32;13.23;;;8.25;;
60006;SDS011;45863;50.336;3.536;2022-08-01T07:29:57;16.60;;;8.32;;
60006;SDS011;45863;50.336;3.536;2022-08-01T07:32:22;17.05;;;8.13;;
60006;SDS011;45863;50.336;3.536;2022-08-01T07:34:47;16.73;;;8.48;;
60006;SDS011;45863;50.336;3.536;2022-08-01T07:37:13;14.63;;;8.50;;
60006;SDS011;45863;50.336;3.536;2022-08-01T07:39:38;15.03;;;9.17;;
60006;SDS011;45863;50.336;3.536;2022-08-01T07:42:03;20.00;;;10.40;;
60006;SDS011;45863;50.336;3.536;2022-08-01T07:44:28;17.13;;;9.68;;
60006;SDS011;45863;50.336;3.536;2022-08-01T07:46:54;16.83;;;10.03;;
60006;SDS011;45863;50.336;3.536;2022-08-01T07:49:19;25.10;;;13.93;;
60006;SDS011;45863;50.336;3.536;2022-08-01T07:51:46;20.05;;;12.02;;
60006;SDS011;45863;50.336;3.536;2022-08-01T07:54:11;19.55;;;11.35;;
60006;SDS011;45863;50.336;3.536;2022-08-01T07:56:36;20.93;;;11.80;;
60006;SDS011;45863;50.336;3.536;2022-08-01T07:59:02;22.33;;;13.07;;
60006;SDS011;45863;50.336;3.536;2022-08-01T08:01:27;19.02;;;12.48;;
60006;SDS011;45863;50.336;3.536;2022-08-01T08:03:52;24.85;;;13.23;;
60006;SDS011;45863;50.336;3.536;2022-08-01T08:06:17;21.17;;;11.83;;
60006;SDS011;45863;50.336;3.536;2022-08-01T08:08:43;21.90;;;13.17;;
60006;SDS011;45863;50.336;3.536;2022-08-01T08:11:08;18.52;;;10.90;;
60006;SDS011;45863;50.336;3.536;2022-08-01T08:13:33;21.05;;;11.23;;
60006;SDS011;45863;50.336;3.536;2022-08-01T08:15:58;20.13;;;11.83;;
60006;SDS011;45863;50.336;3.536;2022-08-01T08:18:24;19.48;;;11.45;;
60006;SDS011;45863;50.336;3.536;2022-08-01T08:20:49;21.27;;;11.70;;
60006;SDS011;45863;50.336;3.536;2022-08-01T08:23:15;16.60;;;10.40;;
60006;SDS011;45863;50.336;3.536;2022-08-01T08:25:59;20.40;;;9.40;;
60006;SDS011;45863;50.336;3.536;2022-08-01T08:28:24;13.65;;;8.88;;
60006;SDS011;45863;50.336;3.536;2022-08-01T08:30:50;10.33;;;7.57;;
60006;SDS011;45863;50.336;3.536;2022-08-01T08:33:15;9.65;;;6.75;;
60006;SDS011;45863;50.336;3.536;2022-08-01T08:35:40;10.90;;;6.83;;
60006;SDS011;45863;50.336;3.536;2022-08-01T08:38:06;11.25;;;7.35;;
60006;SDS011;45863;50.336;3.536;2022-08-01T08:40:31;11.05;;;7.93;;
60006;SDS011;45863;50.336;3.536;2022-08-01T08:42:59;11.00;;;7.15;;
60006;SDS011;45863;50.336;3.536;2022-08-01T08:45:24;12.68;;;7.40;;
60006;SDS011;45863;50.336;3.536;2022-08-01T08:47:50;13.10;;;8.45;;
60006;SDS011;45863;50.336;3.536;2022-08-01T08:50:17;16.05;;;9.77;;
60006;SDS011;45863;50.336;3.536;2022-08-01T08:52:42;17.60;;;10.95;;
60006;SDS011;45863;50.336;3.536;2022-08-01T08:55:08;16.60;;;11.35;;
60006;SDS011;45863;50.336;3.536;2022-08-01T08:57:33;18.73;;;11.02;;
60006;SDS011;45863;50.336;3.536;2022-08-01T08:59:59;19.08;;;11.70;;
60006;SDS011;45863;50.336;3.536;2022-08-01T09:02:24;18.98;;;12.05;;
60006;SDS011;45863;50.336;3.536;2022-08-01T09:04:50;19.42;;;12.35;;
60006;SDS011;45863;50.336;3.536;2022-08-01T09:07:15;21.52;;;14.38;;
60006;SDS011;45863;50.336;3.536;2022-08-01T09:09:40;23.48;;;14.00;;
60006;SDS011;45863;50.336;3.536;2022-08-01T09:12:06;20.08;;;12.38;;
60006;SDS011;45863;50.336;3.536;2022-08-01T09:14:31;18.13;;;11.70;;
60006;SDS011;45863;50.336;3.536;2022-08-01T09:17:01;19.65;;;11.45;;
60006;SDS011;45863;50.336;3.536;2022-08-01T09:19:33;19.88;;;12.27;;
60006;SDS011;45863;50.336;3.536;2022-08-01T09:22:00;19.23;;;11.07;;
60006;SDS011;45863;50.336;3.536;2022-08-01T09:24:26;18.80;;;11.80;;
60006;SDS011;45863;50.336;3.536;2022-08-01T09:26:52;18.20;;;11.70;;
60006;SDS011;45863;50.336;3.536;2022-08-01T09:29:28;17.77;;;11.38;;
60006;SDS011;45863;50.336;3.536;2022-08-01T09:31:54;16.38;;;11.50;;
60006;SDS011;45863;50.336;3.536;2022-08-01T09:34:24;18.83;;;12.50;;
60006;SDS011;45863;50.336;3.536;2022-08-01T09:36:50;18.65;;;11.32;;
60006;SDS011;45863;50.336;3.536;2022-08-01T09:39:23;16.70;;;9.93;;
60006;SDS011;45863;50.336;3.536;2022-08-01T09:41:48;18.30;;;11.27;;
60006;SDS011;45863;50.336;3.536;2022-08-01T09:44:14;18.02;;;11.57;;
60006;SDS011;45863;50.336;3.536;2022-08-01T09:46:54;14.25;;;9.23;;
60006;SDS011;45863;50.336;3.536;2022-08-01T09:49:32;15.10;;;10.02;;
60006;SDS011;45863;50.336;3.536;2022-08-01T09:51:59;16.58;;;10.40;;
60006;SDS011;45863;50.336;3.536;2022-08-01T09:54:28;17.98;;;10.73;;
60006;SDS011;45863;50.336;3.536;2022-08-01T09:56:54;15.07;;;9.88;;
60006;SDS011;45863;50.336;3.536;2022-08-01T09:59:37;18.95;;;10.85;;
60006;SDS011;45863;50.336;3.536;2022-08-01T10:02:05;21.17;;;12.65;;
60006;SDS011;45863;50.336;3.536;2022-08-01T10:04:30;21.33;;;12.32;;
60006;SDS011;45863;50.336;3.536;2022-08-01T10:07:02;23.07;;;12.83;;
60006;SDS011;45863;50.336;3.536;2022-08-01T10:09:29;24.80;;;13.25;;
60006;SDS011;45863;50.336;3.536;2022-08-01T10:11:55;26.00;;;13.70;;
60006;SDS011;45863;50.336;3.536;2022-08-01T10:14:20;23.08;;;12.48;;
60006;SDS011;45863;50.336;3.536;2022-08-01T10:16:48;20.23;;;12.60;;
60006;SDS011;45863;50.336;3.536;2022-08-01T10:19:14;19.77;;;11.15;;
60006;SDS011;45863;50.336;3.536;2022-08-01T10:21:40;20.52;;;11.00;;
60006;SDS011;45863;50.336;3.536;2022-08-01T10:24:05;18.88;;;11.63;;
60006;SDS011;45863;50.336;3.536;2022-08-01T10:26:33;20.33;;;11.55;;
60006;SDS011;45863;50.336;3.536;2022-08-01T10:28:58;14.98;;;9.75;;
60006;SDS011;45863;50.336;3.536;2022-08-01T10:31:24;13.05;;;7.95;;
60006;SDS011;45863;50.336;3.536;2022-08-01T10:33:50;15.80;;;9.60;;
60006;SDS011;45863;50.336;3.536;2022-08-01T10:36:17;17.17;;;9.40;;
60006;SDS011;45863;50.336;3.536;2022-08-01T10:38:42;16.13;;;10.05;;
60006;SDS011;45863;50.336;3.536;2022-08-01T10:41:07;15.37;;;9.80;;
60006;SDS011;45863;50.336;3.536;2022-08-01T10:43:33;15.55;;;9.70;;
60006;SDS011;45863;50.336;3.536;2022-08-01T10:45:58;17.60;;;8.83;;
60006;SDS011;45863;50.336;3.536;2022-08-01T10:48:27;14.75;;;9.73;;
60006;SDS011;45863;50.336;3.536;2022-08-01T10:50:55;16.23;;;9.18;;
60006;SDS011;45863;50.336;3.536;2022-08-01T10:53:22;14.50;;;8.90;;
60006;SDS011;45863;50.336;3.536;2022-08-01T10:58:32;14.18;;;9.70;;
60006;SDS011;45863;50.336;3.536;2022-08-01T11:03:38;13.93;;;8.85;;
60006;SDS011;45863;50.336;3.536;2022-08-01T11:06:03;13.30;;;8.32;;
60006;SDS011;45863;50.336;3.536;2022-08-01T11:08:28;11.65;;;8.23;;
60006;SDS011;45863;50.336;3.536;2022-08-01T11:11:02;13.18;;;7.90;;
60006;SDS011;45863;50.336;3.536;2022-08-01T11:16:30;12.48;;;7.22;;
60006;SDS011;45863;50.336;3.536;2022-08-01T11:18:56;10.88;;;7.05;;
60006;SDS011;45863;50.336;3.536;2022-08-01T11:21:21;12.25;;;7.28;;
60006;SDS011;45863;50.336;3.536;2022-08-01T11:23:51;10.68;;;6.75;;
60006;SDS011;45863;50.336;3.536;2022-08-01T11:26:20;11.48;;;6.82;;
60006;SDS011;45863;50.336;3.536;2022-08-01T11:31:32;13.02;;;5.85;;
60006;SDS011;45863;50.336;3.536;2022-08-01T11:33:57;11.43;;;6.47;;
60006;SDS011;45863;50.336;3.536;2022-08-01T11:36:23;10.88;;;6.40;;
60006;SDS011;45863;50.336;3.536;2022-08-01T11:41:23;13.00;;;8.48;;
60006;SDS011;45863;50.336;3.536;2022-08-01T11:46:19;11.73;;;6.45;;
60006;SDS011;45863;50.336;3.536;2022-08-01T11:48:44;10.80;;;6.18;;
60006;SDS011;45863;50.336;3.536;2022-08-01T11:51:15;10.70;;;6.30;;
60006;SDS011;45863;50.336;3.536;2022-08-01T11:53:46;12.68;;;6.00;;
60006;SDS011;45863;50.336;3.536;2022-08-01T11:56:11;13.73;;;8.10;;
60006;SDS011;45863;50.336;3.536;2022-08-01T11:58:36;13.30;;;9.00;;
60006;SDS011;45863;50.336;3.536;2022-08-01T12:01:02;15.37;;;9.30;;
60006;SDS011;45863;50.336;3.536;2022-08-01T12:03:28;13.52;;;8.52;;
60006;SDS011;45863;50.336;3.536;2022-08-01T12:05:54;14.75;;;8.55;;
60006;SDS011;45863;50.336;3.536;2022-08-01T12:08:26;13.90;;;7.50;;
60006;SDS011;45863;50.336;3.536;2022-08-01T12:10:52;14.45;;;7.70;;
60006;SDS011;45863;50.336;3.536;2022-08-01T12:13:17;11.32;;;7.00;;
60006;SDS011;45863;50.336;3.536;2022-08-01T12:15:43;9.40;;;6.45;;
60006;SDS011;45863;50.336;3.536;2022-08-01T12:18:09;9.90;;;6.82;;
60006;SDS011;45863;50.336;3.536;2022-08-01T12:20:35;12.27;;;7.40;;
60006;SDS011;45863;50.336;3.536;2022-08-01T12:23:05;11.07;;;6.82;;
60006;SDS011;45863;50.336;3.536;2022-08-01T12:25:31;14.65;;;7.50;;
60006;SDS011;45863;50.336;3.536;2022-08-01T12:27:59;12.30;;;7.88;;
60006;SDS011;45863;50.336;3.536;2022-08-01T12:30:24;13.20;;;8.43;;
60006;SDS011;45863;50.336;3.536;2022-08-01T12:32:50;10.85;;;7.07;;
60006;SDS011;45863;50.336;3.536;2022-08-01T12:35:22;11.57;;;7.30;;
60006;SDS011;45863;50.336;3.536;2022-08-01T12:37:49;10.95;;;7.10;;
60006;SDS011;45863;50.336;3.536;2022-08-01T12:40:30;9.95;;;6.70;;
60006;SDS011;45863;50.336;3.536;2022-08-01T12:42:56;9.85;;;6.63;;
60006;SDS011;45863;50.336;3.536;2022-08-01T12:45:26;9.88;;;6.53;;
60006;SDS011;45863;50.336;3.536;2022-08-01T12:47:52;12.43;;;7.10;;
60006;SDS011;45863;50.336;3.536;2022-08-01T12:50:18;10.00;;;7.00;;
60006;SDS011;45863;50.336;3.536;2022-08-01T12:52:44;11.82;;;6.55;;
60006;SDS011;45863;50.336;3.536;2022-08-01T12:55:10;7.88;;;4.63;;
60006;SDS011;45863;50.336;3.536;2022-08-01T12:57:37;7.55;;;5.10;;
60006;SDS011;45863;50.336;3.536;2022-08-01T13:00:06;8.80;;;4.40;;
60006;SDS011;45863;50.336;3.536;2022-08-01T13:02:32;9.05;;;5.90;;
60006;SDS011;45863;50.336;3.536;2022-08-01T13:04:58;7.35;;;4.70;;
60006;SDS011;45863;50.336;3.536;2022-08-01T13:07:33;9.13;;;6.60;;
60006;SDS011;45863;50.336;3.536;2022-08-01T13:09:59;9.10;;;5.85;;
60006;SDS011;45863;50.336;3.536;2022-08-01T13:12:24;9.73;;;5.73;;
60006;SDS011;45863;50.336;3.536;2022-08-01T13:14:49;8.57;;;4.97;;
60006;SDS011;45863;50.336;3.536;2022-08-01T13:17:29;6.10;;;4.43;;
60006;SDS011;45863;50.336;3.536;2022-08-01T13:19:54;6.80;;;4.10;;
60006;SDS011;45863;50.336;3.536;2022-08-01T13:22:19;5.67;;;3.93;;
60006;SDS011;45863;50.336;3.536;2022-08-01T13:24:44;5.97;;;4.00;;
60006;SDS011;45863;50.336;3.536;2022-08-01T13:27:19;7.60;;;4.13;;
60006;SDS011;45863;50.336;3.536;2022-08-01T13:29:44;4.90;;;3.20;;
60006;SDS011;45863;50.336;3.536;2022-08-01T13:32:18;6.10;;;3.33;;
60006;SDS011;45863;50.336;3.536;2022-08-01T13:34:43;9.25;;;2.95;;
60006;SDS011;45863;50.336;3.536;2022-08-01T13:37:08;5.10;;;3.08;;
60006;SDS011;45863;50.336;3.536;2022-08-01T13:39:34;5.10;;;2.70;;
60006;SDS011;45863;50.336;3.536;2022-08-01T13:42:06;6.57;;;3.08;;
60006;SDS011;45863;50.336;3.536;2022-08-01T13:44:31;6.28;;;2.90;;
60006;SDS011;45863;50.336;3.536;2022-08-01T13:46:56;4.72;;;2.65;;
60006;SDS011;45863;50.336;3.536;2022-08-01T13:49:22;4.93;;;2.53;;
60006;SDS011;45863;50.336;3.536;2022-08-01T13:51:47;5.20;;;2.90;;
60006;SDS011;45863;50.336;3.536;2022-08-01T13:54:14;5.15;;;2.88;;
60006;SDS011;45863;50.336;3.536;2022-08-01T13:56:40;6.13;;;2.78;;
60006;SDS011;45863;50.336;3.536;2022-08-01T13:59:05;9.83;;;2.90;;
60006;SDS011;45863;50.336;3.536;2022-08-01T14:01:31;5.78;;;2.65;;
60006;SDS011;45863;50.336;3.536;2022-08-01T14:03:56;5.03;;;2.77;;
60006;SDS011;45863;50.336;3.536;2022-08-01T14:06:21;6.00;;;2.57;;
60006;SDS011;45863;50.336;3.536;2022-08-01T14:08:47;4.90;;;2.30;;
60006;SDS011;45863;50.336;3.536;2022-08-01T14:11:12;4.47;;;2.08;;
60006;SDS011;45863;50.336;3.536;2022-08-01T14:13:37;4.10;;;2.40;;
60006;SDS011;45863;50.336;3.536;2022-08-01T14:16:04;4.35;;;2.50;;
60006;SDS011;45863;50.336;3.536;2022-08-01T14:18:29;6.38;;;2.63;;
60006;SDS011;45863;50.336;3.536;2022-08-01T14:20:54;7.10;;;2.20;;
60006;SDS011;45863;50.336;3.536;2022-08-01T14:23:20;4.13;;;1.98;;
60006;SDS011;45863;50.336;3.536;2022-08-01T14:25:45;5.10;;;2.67;;
60006;SDS011;45863;50.336;3.536;2022-08-01T14:28:10;6.00;;;2.23;;
60006;SDS011;45863;50.336;3.536;2022-08-01T14:30:35;6.00;;;2.47;;
60006;SDS011;45863;50.336;3.536;2022-08-01T14:33:01;5.70;;;2.30;;
60006;SDS011;45863;50.336;3.536;2022-08-01T14:35:26;5.27;;;3.27;;
60006;SDS011;45863;50.336;3.536;2022-08-01T14:37:51;7.87;;;3.03;;
60006;SDS011;45863;50.336;3.536;2022-08-01T14:40:17;6.13;;;3.00;;
60006;SDS011;45863;50.336;3.536;2022-08-01T14:42:42;5.50;;;2.67;;
60006;SDS011;45863;50.336;3.536;2022-08-01T14:45:09;5.22;;;2.80;;
60006;SDS011;45863;50.336;3.536;2022-08-01T14:47:35;5.47;;;2.60;;
60006;SDS011;45863;50.336;3.536;2022-08-01T14:50:01;8.68;;;3.20;;
60006;SDS011;45863;50.336;3.536;2022-08-01T14:52:26;6.80;;;3.10;;
60006;SDS011;45863;50.336;3.536;2022-08-01T14:54:51;5.67;;;2.57;;
60006;SDS011;45863;50.336;3.536;2022-08-01T14:57:16;4.80;;;2.70;;
60006;SDS011;45863;50.336;3.536;2022-08-01T14:59:43;7.20;;;2.90;;